createdAt,value
2023-05-21T00:02:21.619Z,15.25
2023-05-21T00:05:45.856Z,14.02
2023-05-21T00:08:49.478Z,12.48
2023-05-21T00:11:55.427Z,11.87
2023-05-21T00:15:01.943Z,11.95
2023-05-21T00:18:18.819Z,13.55
2023-05-21T00:21:24.710Z,12.23
2023-05-21T00:24:34.443Z,12.00
2023-05-21T00:27:41.040Z,10.13
2023-05-21T00:30:47.881Z,11.15
2023-05-21T00:33:51.243Z,12.32
2023-05-21T00:36:58.097Z,10.85
2023-05-21T00:40:19.782Z,11.18
2023-05-21T00:43:40.738Z,11.97
2023-05-21T00:47:03.817Z,13.13
2023-05-21T00:50:08.230Z,12.00
2023-05-21T00:53:12.035Z,14.23
2023-05-21T00:56:22.323Z,13.85
2023-05-21T00:59:29.024Z,14.00
2023-05-21T01:02:42.323Z,12.27
2023-05-21T01:05:47.079Z,12.35
2023-05-21T01:09:03.900Z,11.23
2023-05-21T01:12:09.011Z,11.90
2023-05-21T01:15:13.506Z,11.27
2023-05-21T01:18:23.393Z,10.43
2023-05-21T01:21:37.591Z,11.85
2023-05-21T01:24:57.126Z,10.77
2023-05-21T01:28:13.363Z,11.52
2023-05-21T01:31:30.508Z,13.50
2023-05-21T01:35:00.023Z,12.10
2023-05-21T01:38:14.722Z,12.82
2023-05-21T01:41:22.494Z,10.82
2023-05-21T01:44:27.434Z,11.77
2023-05-21T01:47:40.236Z,12.70
2023-05-21T01:51:03.941Z,12.98
2023-05-21T01:54:25.012Z,10.82
2023-05-21T01:57:39.683Z,12.95
2023-05-21T02:00:57.080Z,11.80
2023-05-21T02:04:00.131Z,12.70
2023-05-21T02:07:10.405Z,14.02
2023-05-21T02:10:14.439Z,12.63
2023-05-21T02:13:26.502Z,11.75
2023-05-21T02:16:30.614Z,13.60
2023-05-21T02:19:48.934Z,11.27
2023-05-21T02:23:07.979Z,11.82
2023-05-21T02:26:24.234Z,13.48
2023-05-21T02:29:33.680Z,13.00
2023-05-21T02:32:45.184Z,11.70
2023-05-21T02:35:53.373Z,11.87
2023-05-21T02:39:13.417Z,13.05
2023-05-21T02:42:35.125Z,13.07
2023-05-21T02:45:44.483Z,15.70
2023-05-21T02:48:48.699Z,12.10
2023-05-21T02:51:55.709Z,12.13
2023-05-21T02:55:02.328Z,11.57
2023-05-21T02:58:06.886Z,11.25
2023-05-21T03:01:11.226Z,12.65
2023-05-21T03:04:29.537Z,15.18
2023-05-21T03:07:50.590Z,14.37
2023-05-21T03:11:06.842Z,12.25
2023-05-21T03:14:23.665Z,12.52
2023-05-21T03:17:27.548Z,11.98
2023-05-21T03:20:33.557Z,13.93
2023-05-21T03:23:41.884Z,13.50
2023-05-21T03:26:45.245Z,12.48
2023-05-21T03:29:49.128Z,13.27
2023-05-21T03:33:00.058Z,10.93
2023-05-21T03:36:23.648Z,14.73
2023-05-21T03:39:53.524Z,13.90
2023-05-21T03:42:58.909Z,12.80
2023-05-21T03:46:03.765Z,14.45
2023-05-21T03:49:16.164Z,16.65
2023-05-21T03:52:32.972Z,13.63
2023-05-21T03:55:40.771Z,16.87
2023-05-21T03:58:47.230Z,14.35
2023-05-21T04:01:51.158Z,14.63
2023-05-21T04:04:56.488Z,14.00
2023-05-21T04:08:01.936Z,14.18
2023-05-21T04:11:05.642Z,13.00
2023-05-21T04:14:28.531Z,11.88
2023-05-21T04:17:52.537Z,14.32
2023-05-21T04:21:02.630Z,14.23
2023-05-21T04:24:09.890Z,14.65
2023-05-21T04:27:27.130Z,13.10
2023-05-21T04:30:30.968Z,12.05
2023-05-21T04:33:42.627Z,10.40
2023-05-21T04:37:05.463Z,12.80
2023-05-21T04:40:32.582Z,12.82
2023-05-21T04:43:44.151Z,13.13
2023-05-21T04:47:09.473Z,11.10
2023-05-21T04:50:30.876Z,12.55
2023-05-21T04:53:35.980Z,11.45
2023-05-21T04:56:39.638Z,9.57
2023-05-21T04:59:49.339Z,10.03
2023-05-21T05:02:53.308Z,11.45
2023-05-21T05:05:58.188Z,8.65
2023-05-21T05:09:04.943Z,10.80
2023-05-21T05:12:08.641Z,9.75
2023-05-21T05:15:11.838Z,11.70
2023-05-21T05:18:27.411Z,12.32
2023-05-21T05:21:49.527Z,10.68
2023-05-21T05:25:05.397Z,9.20
2023-05-21T05:28:17.730Z,9.90
2023-05-21T05:31:34.014Z,10.10
2023-05-21T05:34:51.513Z,9.32
2023-05-21T05:38:08.252Z,8.18
2023-05-21T05:41:22.826Z,7.82
2023-05-21T05:44:30.791Z,8.93
2023-05-21T05:47:43.886Z,7.77
2023-05-21T05:50:48.773Z,7.85
2023-05-21T05:53:59.768Z,8.95
2023-05-21T05:57:17.956Z,9.27
2023-05-21T06:00:33.340Z,9.23
2023-05-21T06:03:50.272Z,7.20
2023-05-21T06:07:26.293Z,5.95
2023-05-21T06:10:51.254Z,8.07
2023-05-21T06:13:54.500Z,7.53
2023-05-21T06:16:58.297Z,7.55
2023-05-21T06:20:10.882Z,8.00
2023-05-21T06:23:14.200Z,8.10
2023-05-21T06:26:23.361Z,8.85
2023-05-21T06:29:29.623Z,6.78
2023-05-21T06:32:47.274Z,7.82
2023-05-21T06:36:09.228Z,8.47
2023-05-21T06:39:32.217Z,5.82
2023-05-21T06:42:35.491Z,8.43
2023-05-21T06:46:18.736Z,7.32
2023-05-21T06:49:37.264Z,8.38
2023-05-21T06:53:00.192Z,6.53
2023-05-21T06:56:22.243Z,8.95
2023-05-21T06:59:39.319Z,7.35
2023-05-21T07:02:59.333Z,6.00
2023-05-21T07:06:19.282Z,6.97
2023-05-21T07:09:45.161Z,7.43
2023-05-21T07:13:10.233Z,8.63
2023-05-21T07:16:31.201Z,6.03
2023-05-21T07:19:52.214Z,7.80
2023-05-21T07:23:12.147Z,5.93
2023-05-21T07:26:35.244Z,9.63
2023-05-21T07:29:52.346Z,8.20
2023-05-21T07:32:57.752Z,9.25
2023-05-21T07:36:02.350Z,7.15
2023-05-21T07:39:18.605Z,8.60
2023-05-21T07:42:38.044Z,6.43
2023-05-21T07:45:52.988Z,7.13
2023-05-21T07:49:09.055Z,7.10
2023-05-21T07:52:18.738Z,7.72
2023-05-21T07:55:29.398Z,5.80
2023-05-21T07:58:36.550Z,7.03
2023-05-21T08:01:41.140Z,6.20
2023-05-21T08:04:48.904Z,5.55
2023-05-21T08:08:03.085Z,7.18
2023-05-21T08:11:12.687Z,8.55
2023-05-21T08:14:22.635Z,6.87
2023-05-21T08:17:28.697Z,5.57
2023-05-21T08:20:39.432Z,7.55
2023-05-21T08:23:46.403Z,9.50
2023-05-21T08:26:50.767Z,9.57
2023-05-21T08:29:55.465Z,7.23
2023-05-21T08:33:10.535Z,8.15
2023-05-21T08:36:33.922Z,6.07
2023-05-21T08:40:00.095Z,7.32
2023-05-21T08:43:20.874Z,14.90
2023-05-21T08:46:36.580Z,9.27
2023-05-21T08:49:48.158Z,6.72
2023-05-21T08:53:04.067Z,5.75
2023-05-21T08:56:15.579Z,7.80
2023-05-21T08:59:31.348Z,7.20
2023-05-21T09:02:47.076Z,6.80
2023-05-21T09:06:10.831Z,6.30
2023-05-21T09:09:35.758Z,7.38
2023-05-21T09:12:52.892Z,6.07
2023-05-21T09:16:15.829Z,7.65
2023-05-21T09:19:32.690Z,8.93
2023-05-21T09:23:01.834Z,5.95
2023-05-21T09:26:24.532Z,7.85
2023-05-21T09:29:43.855Z,8.13
2023-05-21T09:33:08.512Z,7.78
2023-05-21T09:36:25.972Z,6.13
2023-05-21T09:39:45.373Z,7.80
2023-05-21T09:43:05.931Z,6.63
2023-05-21T09:46:21.782Z,7.43
2023-05-21T09:49:44.786Z,7.38
2023-05-21T09:52:56.249Z,8.97
2023-05-21T09:56:06.217Z,5.88
2023-05-21T09:59:12.359Z,6.93
2023-05-21T10:02:27.176Z,9.93
2023-05-21T10:05:31.088Z,7.68
2023-05-21T10:08:39.666Z,5.43
2023-05-21T10:11:53.702Z,7.88
2023-05-21T10:15:09.935Z,14.30
2023-05-21T10:18:28.165Z,5.50
2023-05-21T10:21:46.441Z,5.72
2023-05-21T10:25:04.705Z,7.63
2023-05-21T10:28:08.723Z,5.57
2023-05-21T10:31:13.877Z,5.88
2023-05-21T10:34:21.836Z,7.18
2023-05-21T10:37:29.733Z,7.55
2023-05-21T10:40:37.376Z,6.30
2023-05-21T10:44:04.592Z,5.95
2023-05-21T10:47:34.878Z,5.20
2023-05-21T10:50:52.624Z,7.10
2023-05-21T10:53:59.690Z,6.05
2023-05-21T10:57:21.834Z,11.17
2023-05-21T11:00:27.023Z,4.95
2023-05-21T11:03:38.083Z,6.20
2023-05-21T11:07:01.680Z,8.38
2023-05-21T11:10:42.658Z,5.30
2023-05-21T11:14:04.651Z,7.77
2023-05-21T11:17:24.678Z,6.93
2023-05-21T11:20:48.561Z,6.18
2023-05-21T11:24:14.632Z,7.63
2023-05-21T11:27:44.965Z,7.32
2023-05-21T11:31:25.215Z,5.43
2023-05-21T11:34:46.823Z,5.20
2023-05-21T11:37:57.140Z,5.53
2023-05-21T11:41:06.248Z,7.90
2023-05-21T11:44:23.556Z,6.00
2023-05-21T11:47:44.720Z,5.77
2023-05-21T11:51:04.689Z,6.88
2023-05-21T11:54:20.998Z,6.70
2023-05-21T11:57:30.840Z,6.93
2023-05-21T12:00:40.251Z,5.88
2023-05-21T12:03:47.774Z,5.90
2023-05-21T12:06:58.556Z,7.32
2023-05-21T12:10:02.374Z,6.70
2023-05-21T12:13:07.189Z,6.78
2023-05-21T12:16:15.072Z,8.20
2023-05-21T12:19:35.520Z,6.67
2023-05-21T12:22:55.564Z,6.40
2023-05-21T12:26:05.554Z,6.55
2023-05-21T12:29:12.772Z,7.40
2023-05-21T12:32:24.444Z,6.47
2023-05-21T12:35:27.816Z,6.50
2023-05-21T12:38:52.413Z,6.97
2023-05-21T12:42:28.391Z,6.50
2023-05-21T12:45:50.511Z,6.75
2023-05-21T12:49:00.002Z,7.32
2023-05-21T12:52:11.168Z,5.90
2023-05-21T12:55:15.108Z,9.23
2023-05-21T12:58:22.401Z,6.45
2023-05-21T13:01:28.908Z,7.38
2023-05-21T13:04:32.197Z,6.97
2023-05-21T13:07:51.236Z,8.30
2023-05-21T13:11:09.493Z,8.30
2023-05-21T13:14:12.443Z,6.63
2023-05-21T13:17:15.930Z,7.70
2023-05-21T13:20:27.481Z,6.97
2023-05-21T13:23:50.315Z,9.37
2023-05-21T13:27:06.669Z,6.07
2023-05-21T13:30:13.257Z,8.95
2023-05-21T13:33:16.858Z,7.30
2023-05-21T13:36:26.304Z,6.88
2023-05-21T13:39:36.131Z,6.47
2023-05-21T13:43:02.292Z,9.38
2023-05-21T13:46:30.326Z,8.68
2023-05-21T13:49:55.271Z,9.75
2023-05-21T13:53:17.389Z,6.93
2023-05-21T13:56:34.030Z,6.40
2023-05-21T13:59:51.223Z,8.18
2023-05-21T14:03:10.760Z,7.10
2023-05-21T14:06:14.183Z,8.38
2023-05-21T14:09:18.411Z,6.60
2023-05-21T14:12:28.733Z,7.17
2023-05-21T14:15:51.204Z,7.30
2023-05-21T14:19:14.233Z,6.50
2023-05-21T14:22:23.791Z,6.65
2023-05-21T14:25:34.583Z,7.45
2023-05-21T14:28:40.868Z,7.20
2023-05-21T14:31:54.451Z,8.05
2023-05-21T14:35:07.240Z,6.43
2023-05-21T14:38:14.363Z,7.43
2023-05-21T14:41:17.350Z,7.25
2023-05-21T14:44:38.901Z,6.10
2023-05-21T14:48:02.119Z,8.45
2023-05-21T14:51:15.833Z,7.10
2023-05-21T14:54:32.302Z,6.25
2023-05-21T14:57:53.657Z,6.95
2023-05-21T15:01:09.358Z,8.20
2023-05-21T15:04:46.167Z,6.75
2023-05-21T15:07:56.872Z,7.55
2023-05-21T15:11:07.807Z,7.60
2023-05-21T15:14:18.574Z,6.03
2023-05-21T15:17:34.413Z,9.37
2023-05-21T15:20:40.654Z,5.97
2023-05-21T15:23:43.521Z,7.20
2023-05-21T15:26:49.323Z,7.10
2023-05-21T15:29:52.752Z,7.60
2023-05-21T15:33:13.091Z,6.53
2023-05-21T15:36:16.055Z,6.70
2023-05-21T15:39:27.582Z,6.38
2023-05-21T15:42:49.934Z,9.25
2023-05-21T15:46:06.345Z,6.80
2023-05-21T15:49:23.240Z,7.40
2023-05-21T15:52:39.254Z,8.60
2023-05-21T15:55:43.635Z,8.73
2023-05-21T15:58:51.397Z,7.07
2023-05-21T16:02:14.952Z,7.45
2023-05-21T16:05:31.391Z,8.37
2023-05-21T16:08:53.991Z,6.90
2023-05-21T16:12:18.147Z,6.45
2023-05-21T16:15:41.954Z,6.57
2023-05-21T16:19:05.028Z,6.55
2023-05-21T16:22:26.960Z,6.50
2023-05-21T16:25:40.288Z,9.50
2023-05-21T16:28:55.898Z,7.22
2023-05-21T16:32:30.100Z,5.88
2023-05-21T16:35:46.618Z,7.22
2023-05-21T16:38:49.604Z,6.23
2023-05-21T16:41:59.791Z,6.00
2023-05-21T16:45:10.922Z,6.47
2023-05-21T16:48:26.915Z,6.72
2023-05-21T16:51:46.519Z,7.30
2023-05-21T16:55:01.851Z,8.03
2023-05-21T16:58:10.636Z,7.68
2023-05-21T17:01:14.895Z,5.82
2023-05-21T17:04:21.454Z,5.93
2023-05-21T17:07:31.520Z,6.53
2023-05-21T17:10:35.103Z,6.23
2023-05-21T17:13:41.993Z,8.38
2023-05-21T17:17:01.868Z,7.20
2023-05-21T17:20:25.843Z,6.72
2023-05-21T17:23:44.522Z,7.97
2023-05-21T17:26:48.199Z,6.63
2023-05-21T17:29:58.274Z,7.45
2023-05-21T17:33:15.209Z,7.35
2023-05-21T17:36:37.715Z,6.80
2023-05-21T17:40:01.756Z,7.07
2023-05-21T17:43:18.877Z,9.77
2023-05-21T17:46:36.842Z,7.57
2023-05-21T17:50:11.709Z,6.68
2023-05-21T17:53:29.054Z,6.90
2023-05-21T17:56:46.557Z,6.88
2023-05-21T18:00:09.751Z,8.27
2023-05-21T18:03:34.854Z,6.22
2023-05-21T18:06:59.682Z,9.75
2023-05-21T18:10:09.761Z,8.88
2023-05-21T18:13:25.933Z,7.22
2023-05-21T18:16:31.683Z,7.07
2023-05-21T18:19:39.240Z,9.43
2023-05-21T18:22:55.944Z,8.82
2023-05-21T18:26:04.019Z,9.20
2023-05-21T18:29:10.919Z,7.30
2023-05-21T18:32:15.356Z,8.73
2023-05-21T18:35:32.042Z,8.80
2023-05-21T18:38:35.550Z,10.23
2023-05-21T18:41:39.866Z,8.35
2023-05-21T18:44:56.688Z,8.68
2023-05-21T18:48:06.731Z,8.90
2023-05-21T18:51:22.552Z,9.05
2023-05-21T18:54:38.820Z,11.93
2023-05-21T18:57:42.311Z,10.68
2023-05-21T19:00:49.127Z,9.65
2023-05-21T19:04:10.707Z,8.70
2023-05-21T19:07:16.030Z,12.20
2023-05-21T19:10:23.836Z,12.65
2023-05-21T19:13:34.347Z,9.85
2023-05-21T19:16:38.673Z,9.73
2023-05-21T19:19:58.600Z,9.23
2023-05-21T19:23:14.489Z,9.15
2023-05-21T19:26:30.930Z,13.75
2023-05-21T19:29:34.318Z,11.02
2023-05-21T19:32:41.047Z,10.43
2023-05-21T19:35:55.611Z,11.37
2023-05-21T19:38:59.059Z,11.68
2023-05-21T19:42:07.717Z,11.43
2023-05-21T19:45:18.199Z,12.20
2023-05-21T19:48:22.336Z,12.23
2023-05-21T19:51:32.957Z,10.70
2023-05-21T19:54:40.056Z,12.80
2023-05-21T19:57:53.738Z,13.50
2023-05-21T20:01:01.033Z,13.90
2023-05-21T20:04:09.571Z,12.77
2023-05-21T20:07:24.552Z,12.27
2023-05-21T20:10:41.116Z,12.43
2023-05-21T20:13:51.373Z,13.95
2023-05-21T20:16:58.587Z,11.80
2023-05-21T20:20:07.692Z,15.18
2023-05-21T20:23:23.783Z,15.10
2023-05-21T20:26:46.502Z,12.88
2023-05-21T20:30:03.776Z,19.55
2023-05-21T20:33:10.214Z,14.18
2023-05-21T20:36:15.484Z,13.68
2023-05-21T20:39:32.581Z,13.30
2023-05-21T20:42:36.634Z,10.85
2023-05-21T20:45:42.120Z,13.30
2023-05-21T20:48:58.491Z,13.38
2023-05-21T20:52:02.770Z,13.93
2023-05-21T20:55:06.532Z,14.20
2023-05-21T20:58:12.942Z,12.27
2023-05-21T21:01:17.717Z,11.90
2023-05-21T21:04:41.405Z,11.27
2023-05-21T21:08:03.434Z,12.88
2023-05-21T21:11:22.341Z,10.87
2023-05-21T21:14:38.410Z,10.90
2023-05-21T21:17:58.447Z,10.75
2023-05-21T21:21:18.387Z,13.57
2023-05-21T21:24:45.352Z,12.55
2023-05-21T21:28:09.398Z,12.53
2023-05-21T21:31:12.529Z,9.30
2023-05-21T21:34:15.611Z,10.38
2023-05-21T21:37:25.546Z,9.95
2023-05-21T21:40:34.777Z,11.73
2023-05-21T21:43:50.173Z,9.67
2023-05-21T21:46:54.980Z,11.48
2023-05-21T21:50:01.828Z,11.38
2023-05-21T21:53:14.520Z,9.90
2023-05-21T21:56:19.005Z,12.52
2023-05-21T21:59:33.315Z,10.27
2023-05-21T22:02:44.059Z,10.73
2023-05-21T22:05:47.215Z,11.15
2023-05-21T22:08:51.387Z,10.00
2023-05-21T22:11:58.476Z,8.60
2023-05-21T22:15:05.904Z,11.70
2023-05-21T22:18:18.460Z,15.20
2023-05-21T22:21:33.357Z,11.63
2023-05-21T22:24:36.983Z,9.98
2023-05-21T22:27:53.078Z,10.43
2023-05-21T22:31:27.168Z,8.40
2023-05-21T22:34:49.286Z,10.35
2023-05-21T22:37:52.373Z,12.55
2023-05-21T22:40:56.362Z,10.98
2023-05-21T22:44:07.066Z,10.55
2023-05-21T22:47:23.114Z,12.77
2023-05-21T22:50:32.994Z,9.55
2023-05-21T22:53:39.857Z,10.00
2023-05-21T22:56:49.381Z,9.73
2023-05-21T22:59:52.272Z,11.80
2023-05-21T23:02:56.622Z,9.80
2023-05-21T23:06:07.907Z,10.43
2023-05-21T23:09:10.841Z,9.30
2023-05-21T23:12:14.629Z,11.50
2023-05-21T23:15:19.464Z,9.65
2023-05-21T23:18:41.127Z,10.73
2023-05-21T23:21:58.988Z,10.82
2023-05-21T23:25:22.028Z,10.57
2023-05-21T23:28:39.915Z,9.25
2023-05-21T23:31:56.972Z,12.07
2023-05-21T23:35:07.839Z,8.43
2023-05-21T23:38:15.124Z,9.57
2023-05-21T23:41:24.005Z,9.40
2023-05-21T23:44:33.570Z,7.90
2023-05-21T23:47:55.994Z,7.57
2023-05-21T23:51:29.916Z,9.13
2023-05-21T23:54:50.050Z,9.32
2023-05-21T23:58:05.846Z,13.10
